KSTC

St Cloud Regional Airport

St Cloud, Minnesota, USA
METAR KSTC 220353Z 13011G20KT 10SM OVC028 M09/M15 A3006 RMK AO2 SLP211 T10941150
Observed Flight Rules
Jan-22 @ 03:53 UTC (21 minutes ago) Marginal Visual Flight Rules
Wind Visibility Clouds
130° at 11 knots
 Gusting to 20 knots
10 miles
  • Overcast at 2,800' AGL
Temperatures Readings
Current -9°C / 16°F
Dewpoint -15°C / 5°F
Humidity 62%
Altimeter 30.06" Hg
Pressure 1021.1 hPa
Elevation 314
METAR KSTC 220353Z 13011G20KT 10SM OVC028 M09/M15 A3006 RMK AO2 SLP211 T10941150
Observed Flight Rules
Jan-22 @ 03:53 UTC
(21 minutes ago)
MVFR
Wind Visibility
130° at 11 knots
 Gusting to 20 knots
10 miles
Clouds
  • Overcast at 2,800' AGL
Temperature Dewpoint
-9°C / 16°F -15°C / 5°F
Humidity Altimeter Pressure
62% 30.06" Hg 1021.1 hPa